Carrabassett Regional Airport (B21)
Carrabassett, ME
Field Elevation: 874
Lat: 45°05.12N  Long: 70°12.98W
CTAF/Unicom Freq: 122.8000
   
    
Weather Advisories
2019-12-12   06:52 Z
Altimeter 30.25" Hg
Wind 360° @ 10 KT
Gusts 25 KT
Visibility 8 SM
Temperature -7° C (19° F)
Dewpoint -18° C (0° F)
Relative Humidity 42%
Density Altitude --
Condensation Altitude 6,100 feet
Wind Chill: -14° C (7° F)
Wind and Runways
Indicated Runway = 35
Headwind = 10 kt
Crosswind = 2 kt
History
 
 
 
More Info
NOAA Forecast
 
 
About Us
Belfort Instrument
 
 
FAA Disclaimer: The data displayed is for advisory purposes only and is not to be used for flight planning or operations. For official data, please call (not available) to hear the current automated AWOS voice message.
  METAR B21 120652Z AUTO 36010G25KT 8 SM M07/M18 A3025